Liberia, Costa Rica

11:15 AM CST on August 27, 2016 (GMT -0600)
Daniel Oduber Quiros International | | Change Station

Elev 262 ft 10.59 °N, 85.54 °W | Updated 15 minutes ago

Mostly Cloudy
Mostly Cloudy
86 °F
Feels Like 97 °F
N
6
Wind Variable Wind from South

Today
High -- | Low -- °F
--% Chance of Precip.
Yesterday
High -- | Low -- °F
Precip. -- in
Pressure 29.88 in
Visibility 6.2 miles
Clouds Few 2000 ft
Mostly Cloudy 25000 ft
Heat Index 97 °F
Dew Point 77 °F
Humidity 74%
Rainfall 0.00 in
Snow Depth Not available.
5:32 AM 5:54 PM
Waning Crescent, 23% visible
METAR MRLB 271700Z 18005KT 9999 FEW020 BKN250 30/25 A2988 NOSIG
Pressure 29.88 in
Visibility 6.2 miles
Clouds Few 2000 ft
Mostly Cloudy 25000 ft
Heat Index 97 °F
Dew Point 77 °F
Humidity 74%
Rainfall 0.00 in
Snow Depth Not available.
5:32 AM 5:54 PM
Waning Crescent, 23% visible
METAR MRLB 271700Z 18005KT 9999 FEW020 BKN250 30/25 A2988 NOSIG

10-Day Weather Forecast

No radar image for this location.
×

Almanac

Astronomy

Aug. 27, 2016 Rise Set
Actual Time
Civil Twilight
Nautical Twilight
Astronomical Twilight
Moon
Length of Visible Light
Length of Day
Tomorrow will be .
, % of the Moon is Illuminated

Today's Extremes

Country Highs Country Lows

Community

WunderPhotos

Upload Photos

1,935,386 photos uploaded!

WunderBlog® & News

Nearby

Air Quality

  Air Quality AQ Index Pollutant
Not available.

Snow Depth

Station Depth Elevation

Earthquake Activity

City Distance Mag. Time & Date
Minimum magnitude displayed is 2.5.

Coastal Water Temperatures

Place Temperature

Stations

Nearby Weather Stations

Station Location Temp. Windchill Dew Point Humidity Wind Precip. Elev Updated Type